createdAt,value
2018-09-27T00:00:50.200Z,1022.5
2018-09-27T00:02:00.136Z,1022.47
2018-09-27T00:03:10.078Z,1022.45
2018-09-27T00:04:20.018Z,1022.45
2018-09-27T00:05:29.962Z,1022.41
2018-09-27T00:06:39.903Z,1022.41
2018-09-27T00:07:49.818Z,1022.45
2018-09-27T00:08:59.508Z,1022.39
2018-09-27T00:10:09.451Z,1022.38
2018-09-27T00:11:19.376Z,1022.35
2018-09-27T00:12:29.313Z,1022.45
2018-09-27T00:13:39.252Z,1022.37
2018-09-27T00:14:49.182Z,1022.4
2018-09-27T00:15:59.130Z,1022.33
2018-09-27T00:17:08.833Z,1022.34
2018-09-27T00:18:18.510Z,1022.34
2018-09-27T00:19:28.495Z,1022.39
2018-09-27T00:20:38.133Z,1022.41
2018-09-27T00:21:47.809Z,1022.4
2018-09-27T00:22:57.549Z,1022.38
2018-09-27T00:24:07.491Z,1022.37
2018-09-27T00:25:17.163Z,1022.39
2018-09-27T00:26:27.097Z,1022.33
2018-09-27T00:27:37.038Z,1022.33
2018-09-27T00:28:46.725Z,1022.34
2018-09-27T00:29:56.661Z,1022.43
2018-09-27T00:31:06.608Z,1022.39
2018-09-27T00:32:16.605Z,1022.35
2018-09-27T00:33:26.549Z,1022.34
2018-09-27T00:34:35.976Z,1022.27
2018-09-27T00:35:45.914Z,1022.28
2018-09-27T00:36:55.588Z,1022.33
2018-09-27T00:38:05.532Z,1022.34
2018-09-27T00:39:15.200Z,1022.36
2018-09-27T00:40:25.156Z,1022.34
2018-09-27T00:41:34.829Z,1022.3
2018-09-27T00:42:44.526Z,1022.3
2018-09-27T00:43:54.464Z,1022.27
2018-09-27T00:45:04.155Z,1022.27
2018-09-27T00:46:14.094Z,1022.3
2018-09-27T00:47:23.787Z,1022.31
2018-09-27T00:48:33.780Z,1022.24
2018-09-27T00:49:43.723Z,1022.26
2018-09-27T00:50:53.657Z,1022.27
2018-09-27T00:52:03.586Z,1022.27
2018-09-27T00:53:13.287Z,1022.26
2018-09-27T00:54:23.228Z,1022.3
2018-09-27T00:55:33.167Z,1022.33
2018-09-27T00:56:43.105Z,1022.25
2018-09-27T00:57:52.790Z,1022.31
2018-09-27T00:59:02.721Z,1022.28
2018-09-27T01:00:12.407Z,1022.27
2018-09-27T01:01:22.094Z,1022.28
2018-09-27T01:02:32.026Z,1022.24
2018-09-27T01:03:41.717Z,1022.19
2018-09-27T01:04:51.644Z,1022.27
2018-09-27T01:06:01.329Z,1022.25
2018-09-27T01:07:11.023Z,1022.27
2018-09-27T01:08:20.975Z,1022.21
2018-09-27T01:09:30.654Z,1022.24
2018-09-27T01:10:40.602Z,1022.29
2018-09-27T01:11:50.556Z,1022.2
2018-09-27T01:13:00.501Z,1022.18
2018-09-27T01:14:10.459Z,1022.15
2018-09-27T01:15:20.437Z,1022.2
2018-09-27T01:16:30.131Z,1022.16
2018-09-27T01:17:40.068Z,1022.19
2018-09-27T01:18:49.753Z,1022.18
2018-09-27T01:19:59.683Z,1022.16
2018-09-27T01:21:09.630Z,1022.17
2018-09-27T01:22:18.814Z,1022.11
2018-09-27T01:23:28.493Z,1022.21
2018-09-27T01:24:38.434Z,1022.17
2018-09-27T01:25:48.368Z,1022.19
2018-09-27T01:26:58.317Z,1022.13
2018-09-27T01:28:08.301Z,1022.14
2018-09-27T01:29:18.240Z,1022.16
2018-09-27T01:30:27.942Z,1022.11
2018-09-27T01:31:37.899Z,1022.13
2018-09-27T01:32:47.848Z,1022.13
2018-09-27T01:33:57.817Z,1022.16
2018-09-27T01:35:07.761Z,1022.11
2018-09-27T01:36:17.445Z,1022.18
2018-09-27T01:37:27.399Z,1022.16
2018-09-27T01:38:36.835Z,1022.18
2018-09-27T01:39:46.541Z,1022.15
2018-09-27T01:40:56.216Z,1022.12
2018-09-27T01:42:05.916Z,1022.15
2018-09-27T01:43:15.843Z,1022.12
2018-09-27T01:44:25.790Z,1022.14
2018-09-27T01:45:35.718Z,1022.15
2018-09-27T01:46:45.653Z,1022.12
2018-09-27T01:47:55.335Z,1022.1
2018-09-27T01:49:05.276Z,1022.09
2018-09-27T01:50:14.951Z,1022.16
2018-09-27T01:51:24.907Z,1022.14
2018-09-27T01:52:34.918Z,1022.16
2018-09-27T01:53:44.869Z,1022.21
2018-09-27T01:54:54.288Z,1022.17
2018-09-27T01:56:04.211Z,1022.2
2018-09-27T01:57:14.156Z,1022.19
2018-09-27T01:58:24.089Z,1022.2
2018-09-27T01:59:34.033Z,1022.22
2018-09-27T02:00:43.975Z,1022.2
2018-09-27T02:01:53.658Z,1022.21
2018-09-27T02:03:03.605Z,1022.24
2018-09-27T02:04:13.543Z,1022.27
2018-09-27T02:05:23.495Z,1022.24
2018-09-27T02:06:33.189Z,1022.21
2018-09-27T02:07:43.143Z,1022.18
2018-09-27T02:08:53.080Z,1022.12
2018-09-27T02:10:03.040Z,1022.15
2018-09-27T02:11:12.985Z,1022.13
2018-09-27T02:12:22.937Z,1022.15
2018-09-27T02:13:32.372Z,1022.2
2018-09-27T02:14:42.331Z,1022.16
2018-09-27T02:15:52.033Z,1022.1
2018-09-27T02:17:01.723Z,1022.12
2018-09-27T02:18:11.662Z,1022.19
2018-09-27T02:19:21.355Z,1022.16
2018-09-27T02:20:31.526Z,1022.14
2018-09-27T02:21:40.958Z,1022.1
2018-09-27T02:22:50.650Z,1022.14
2018-09-27T02:24:00.591Z,1022.1
2018-09-27T02:25:10.541Z,1022.11
2018-09-27T02:26:20.475Z,1022.17
2018-09-27T02:27:30.156Z,1022.14
2018-09-27T02:28:40.102Z,1022.17
2018-09-27T02:29:50.049Z,1022.12
2018-09-27T02:30:59.987Z,1022.12
2018-09-27T02:32:09.937Z,1022.12
2018-09-27T02:33:19.884Z,1022.13
2018-09-27T02:34:29.827Z,1022.11
2018-09-27T02:35:39.774Z,1022.09
2018-09-27T02:36:49.508Z,1022.1
2018-09-27T02:37:59.464Z,1022.09
2018-09-27T02:39:09.422Z,1022.11
2018-09-27T02:40:19.401Z,1022.12
2018-09-27T02:41:29.351Z,1022.12
2018-09-27T02:42:39.305Z,1022.12
2018-09-27T02:43:49.248Z,1022.06
2018-09-27T02:44:59.200Z,1022.16
2018-09-27T02:46:08.898Z,1022.09
2018-09-27T02:47:18.837Z,1022.13
2018-09-27T02:48:28.804Z,1022.15
2018-09-27T02:49:38.766Z,1022.06
2018-09-27T02:50:48.444Z,1022.08
2018-09-27T02:51:58.405Z,1022.13
2018-09-27T02:53:08.343Z,1022.13
2018-09-27T02:54:18.043Z,1022.13
2018-09-27T02:55:27.980Z,1022.1
2018-09-27T02:56:37.957Z,1022.14
2018-09-27T02:57:47.922Z,1022.15
2018-09-27T02:58:57.113Z,1022.15
2018-09-27T03:00:06.803Z,1022.13
2018-09-27T03:01:16.292Z,1022.16
2018-09-27T03:02:25.970Z,1022.15
2018-09-27T03:03:36.108Z,1022.16
2018-09-27T03:04:45.804Z,1022.11
2018-09-27T03:05:55.758Z,1022.14
2018-09-27T03:07:05.445Z,1022.13
2018-09-27T03:08:15.148Z,1022.14
2018-09-27T03:09:25.093Z,1022.13
2018-09-27T03:10:34.789Z,1022.15
2018-09-27T03:11:44.221Z,1022.06
2018-09-27T03:12:54.174Z,1022.08
2018-09-27T03:14:04.134Z,1022.04
2018-09-27T03:15:14.080Z,1022.09
2018-09-27T03:16:24.032Z,1022.02
2018-09-27T03:17:33.734Z,1022.07
2018-09-27T03:18:43.913Z,1022.08
2018-09-27T03:19:53.856Z,1022.07
2018-09-27T03:21:03.873Z,1022.06
2018-09-27T03:22:14.096Z,1022.05
2018-09-27T03:23:23.807Z,1022.07
2018-09-27T03:24:33.766Z,1022.09
2018-09-27T03:25:43.703Z,1022.05
2018-09-27T03:26:53.434Z,1022.02
2018-09-27T03:28:03.384Z,1022.07
2018-09-27T03:29:13.356Z,1022.1
2018-09-27T03:30:23.310Z,1022.07
2018-09-27T03:31:33.267Z,1022.05
2018-09-27T03:32:42.957Z,1022.06
2018-09-27T03:33:52.894Z,1022.07
2018-09-27T03:35:02.586Z,1022.14
2018-09-27T03:36:12.281Z,1022.09
2018-09-27T03:37:22.235Z,1022.07
2018-09-27T03:38:31.921Z,1022.07
2018-09-27T03:39:41.863Z,1022.02
2018-09-27T03:40:52.356Z,1022.06
2018-09-27T03:42:02.315Z,1022.06
2018-09-27T03:43:12.264Z,1021.99
2018-09-27T03:44:21.952Z,1021.99
2018-09-27T03:45:31.631Z,1022.04
2018-09-27T03:46:41.590Z,1022.01
2018-09-27T03:47:51.541Z,1021.99
2018-09-27T03:49:01.497Z,1021.98
2018-09-27T03:50:11.442Z,1021.96
2018-09-27T03:51:21.387Z,1021.96
2018-09-27T03:52:31.342Z,1021.98
2018-09-27T03:53:41.041Z,1021.99
2018-09-27T03:54:50.998Z,1022.03
2018-09-27T03:56:00.947Z,1021.98
2018-09-27T03:57:10.909Z,1021.98
2018-09-27T03:58:20.589Z,1021.98
2018-09-27T03:59:30.290Z,1022.03
2018-09-27T04:00:40.242Z,1021.98
2018-09-27T04:01:50.198Z,1022.04
2018-09-27T04:02:59.896Z,1022.07
2018-09-27T04:04:09.635Z,1022.07
2018-09-27T04:05:19.579Z,1022.1
2018-09-27T04:06:29.528Z,1022.07
2018-09-27T04:07:39.477Z,1022.11
2018-09-27T04:08:49.178Z,1022.06
2018-09-27T04:09:58.931Z,1022.06
2018-09-27T04:11:08.863Z,1022.02
2018-09-27T04:12:18.562Z,1022.04
2018-09-27T04:13:28.541Z,1021.97
2018-09-27T04:14:38.231Z,1022
2018-09-27T04:15:48.241Z,1022.04
2018-09-27T04:16:58.598Z,1021.93
2018-09-27T04:18:08.560Z,1021.96
2018-09-27T04:19:18.522Z,1021.87
2018-09-27T04:20:28.476Z,1021.91
2018-09-27T04:21:38.478Z,1021.87
2018-09-27T04:22:48.733Z,1021.88
2018-09-27T04:23:58.219Z,1021.87
2018-09-27T04:25:08.310Z,1021.79
2018-09-27T04:26:18.251Z,1021.8
2018-09-27T04:27:27.687Z,1021.74
2018-09-27T04:28:37.372Z,1021.73
2018-09-27T04:29:47.070Z,1021.8
2018-09-27T04:30:56.500Z,1021.69
2018-09-27T04:32:06.442Z,1021.74
2018-09-27T04:33:16.401Z,1021.84
2018-09-27T04:34:26.104Z,1021.82
2018-09-27T04:35:35.543Z,1021.85
2018-09-27T04:36:45.217Z,1021.92
2018-09-27T04:37:55.167Z,1021.96
2018-09-27T04:39:05.101Z,1021.98
2018-09-27T04:40:15.046Z,1022.01
2018-09-27T04:41:24.747Z,1022.07
2018-09-27T04:42:34.434Z,1022.04
2018-09-27T04:43:44.426Z,1022.14
2018-09-27T04:44:54.370Z,1022.09
2018-09-27T04:46:04.316Z,1022.11
2018-09-27T04:47:13.753Z,1022.09
2018-09-27T04:48:23.698Z,1022.15
2018-09-27T04:49:33.400Z,1022.15
2018-09-27T04:50:43.092Z,1022.16
2018-09-27T04:51:52.581Z,1022.22
2018-09-27T04:53:02.418Z,1022.11
2018-09-27T04:54:12.377Z,1022.13
2018-09-27T04:55:22.347Z,1022.1
2018-09-27T04:56:32.284Z,1022.12
2018-09-27T04:57:41.964Z,1022.14
2018-09-27T04:58:51.700Z,1022.05
2018-09-27T05:00:01.449Z,1022.11
2018-09-27T05:01:12.092Z,1022.08
2018-09-27T05:02:22.051Z,1022.06
2018-09-27T05:03:31.995Z,1022.08
2018-09-27T05:04:41.901Z,1022.03
2018-09-27T05:05:51.855Z,1022.03
2018-09-27T05:07:01.544Z,1022.04
2018-09-27T05:08:11.491Z,1021.99
2018-09-27T05:09:21.426Z,1021.96
2018-09-27T05:10:31.502Z,1021.97
2018-09-27T05:11:41.270Z,1021.96
2018-09-27T05:12:51.245Z,1021.98
2018-09-27T05:14:01.220Z,1022.01
2018-09-27T05:15:10.910Z,1022.05
2018-09-27T05:16:20.961Z,1021.99
2018-09-27T05:17:30.649Z,1022.03
2018-09-27T05:18:40.333Z,1022.08
2018-09-27T05:19:50.277Z,1022.09
2018-09-27T05:21:00.242Z,1022.1
2018-09-27T05:22:10.184Z,1022.06
2018-09-27T05:23:20.139Z,1022.02
2018-09-27T05:24:30.100Z,1022.04
2018-09-27T05:25:39.799Z,1022.04
2018-09-27T05:26:49.786Z,1022.04
2018-09-27T05:27:59.233Z,1022.03
2018-09-27T05:29:09.202Z,1022.04
2018-09-27T05:30:19.179Z,1021.99
2018-09-27T05:31:29.138Z,1021.92
2018-09-27T05:32:39.115Z,1021.97
2018-09-27T05:33:48.813Z,1022.04
2018-09-27T05:34:58.535Z,1021.93
2018-09-27T05:36:08.209Z,1021.99
2018-09-27T05:37:17.905Z,1022.08
2018-09-27T05:38:27.867Z,1022.07
2018-09-27T05:39:37.900Z,1022.05
2018-09-27T05:40:47.796Z,1022.08
2018-09-27T05:41:57.760Z,1022.05
2018-09-27T05:43:07.697Z,1022.08
2018-09-27T05:44:17.652Z,1022.05
2018-09-27T05:45:27.640Z,1022.05
2018-09-27T05:46:38.005Z,1022.09
2018-09-27T05:47:47.953Z,1022.07
2018-09-27T05:48:57.911Z,1022.1
2018-09-27T05:50:07.927Z,1022.1
2018-09-27T05:51:17.367Z,1022.06
2018-09-27T05:52:27.460Z,1022.11
2018-09-27T05:53:37.625Z,1022.11
2018-09-27T05:54:47.589Z,1022.1
2018-09-27T05:55:57.626Z,1022.11
2018-09-27T05:57:07.902Z,1022.13
2018-09-27T05:58:17.375Z,1022.1
2018-09-27T05:59:27.326Z,1022.1
2018-09-27T06:00:37.281Z,1022.05
2018-09-27T06:01:46.981Z,1022.09
2018-09-27T06:02:56.850Z,1022.1
2018-09-27T06:04:06.827Z,1022.12
2018-09-27T06:05:16.782Z,1022.11
2018-09-27T06:06:26.745Z,1022.12
2018-09-27T06:07:36.450Z,1022.09
2018-09-27T06:08:46.391Z,1022.08
2018-09-27T06:09:56.349Z,1022.09
2018-09-27T06:11:06.047Z,1022.08
2018-09-27T06:12:16.093Z,1022.04
2018-09-27T06:13:26.075Z,1022.08
2018-09-27T06:14:36.039Z,1022.06
2018-09-27T06:15:45.994Z,1022.13
2018-09-27T06:16:55.945Z,1022.09
2018-09-27T06:18:05.891Z,1022.05
2018-09-27T06:19:15.626Z,1022.16
2018-09-27T06:20:25.628Z,1022.14
2018-09-27T06:21:35.107Z,1022.14
2018-09-27T06:22:45.466Z,1022.16
2018-09-27T06:23:55.442Z,1022.21
2018-09-27T06:25:05.394Z,1022.23
2018-09-27T06:26:15.357Z,1022.23
2018-09-27T06:27:25.383Z,1022.21
2018-09-27T06:28:35.234Z,1022.21
2018-09-27T06:29:45.200Z,1022.2
2018-09-27T06:30:55.147Z,1022.18
2018-09-27T06:32:04.854Z,1022.21
2018-09-27T06:33:14.540Z,1022.18
2018-09-27T06:34:24.297Z,1022.19
2018-09-27T06:35:34.250Z,1022.23
2018-09-27T06:36:43.967Z,1022.22
2018-09-27T06:37:53.416Z,1022.22
2018-09-27T06:39:03.428Z,1022.27
2018-09-27T06:40:13.136Z,1022.23
2018-09-27T06:41:22.936Z,1022.23
2018-09-27T06:42:33.346Z,1022.27
2018-09-27T06:43:43.092Z,1022.29
2018-09-27T06:44:53.075Z,1022.33
2018-09-27T06:46:03.078Z,1022.32
2018-09-27T06:47:13.045Z,1022.33
2018-09-27T06:48:23.018Z,1022.42
2018-09-27T06:49:33.765Z,1022.39
2018-09-27T06:50:43.570Z,1022.44
2018-09-27T06:51:53.632Z,1022.41
2018-09-27T06:53:03.672Z,1022.46
2018-09-27T06:54:13.639Z,1022.39
2018-09-27T06:55:23.540Z,1022.41
2018-09-27T06:56:34.439Z,1022.34
2018-09-27T06:57:45.033Z,1022.43
2018-09-27T06:58:54.752Z,1022.38
2018-09-27T07:00:04.507Z,1022.4
2018-09-27T07:01:13.981Z,1022.43
2018-09-27T07:02:23.678Z,1022.48
2018-09-27T07:03:33.774Z,1022.43
2018-09-27T07:04:43.764Z,1022.43
2018-09-27T07:05:53.015Z,1022.43
2018-09-27T07:07:03.249Z,1022.44
2018-09-27T07:08:12.801Z,1022.41
2018-09-27T07:09:22.570Z,1022.49
2018-09-27T07:10:32.273Z,1022.42
2018-09-27T07:11:42.286Z,1022.41
2018-09-27T07:12:52.619Z,1022.39
2018-09-27T07:14:02.860Z,1022.43
2018-09-27T07:15:12.598Z,1022.39
2018-09-27T07:16:22.621Z,1022.41
2018-09-27T07:17:32.320Z,1022.39
2018-09-27T07:18:42.329Z,1022.34
2018-09-27T07:19:52.765Z,1022.36
2018-09-27T07:21:02.209Z,1022.36
2018-09-27T07:22:11.921Z,1022.36
2018-09-27T07:23:21.612Z,1022.4
2018-09-27T07:24:31.559Z,1022.28
2018-09-27T07:25:41.519Z,1022.4
2018-09-27T07:26:51.492Z,1022.46
2018-09-27T07:28:01.422Z,1022.42
2018-09-27T07:29:11.127Z,1022.42
2018-09-27T07:30:20.837Z,1022.46
2018-09-27T07:31:30.814Z,1022.47
2018-09-27T07:32:40.566Z,1022.49
2018-09-27T07:33:50.709Z,1022.49
2018-09-27T07:35:00.684Z,1022.49
2018-09-27T07:36:10.386Z,1022.46
2018-09-27T07:37:20.392Z,1022.49
2018-09-27T07:38:30.397Z,1022.52
2018-09-27T07:39:40.012Z,1022.53
2018-09-27T07:40:49.990Z,1022.52
2018-09-27T07:41:59.981Z,1022.5
2018-09-27T07:43:09.983Z,1022.5
2018-09-27T07:44:19.982Z,1022.47
2018-09-27T07:45:29.950Z,1022.48
2018-09-27T07:46:39.659Z,1022.5
2018-09-27T07:47:49.617Z,1022.49
2018-09-27T07:48:59.583Z,1022.5
2018-09-27T07:50:09.598Z,1022.48
2018-09-27T07:51:19.559Z,1022.55
2018-09-27T07:52:29.529Z,1022.53
2018-09-27T07:53:39.490Z,1022.57
2018-09-27T07:54:49.602Z,1022.58
2018-09-27T07:56:00.032Z,1022.48
2018-09-27T07:57:10.096Z,1022.57
2018-09-27T07:58:20.089Z,1022.55
2018-09-27T07:59:30.047Z,1022.52
2018-09-27T08:00:40.087Z,1022.6
2018-09-27T08:01:50.207Z,1022.54
2018-09-27T08:02:59.706Z,1022.53
2018-09-27T08:04:09.709Z,1022.56
2018-09-27T08:05:20.153Z,1022.49
2018-09-27T08:06:30.120Z,1022.52
2018-09-27T08:07:40.087Z,1022.56
2018-09-27T08:08:50.043Z,1022.53
2018-09-27T08:09:59.543Z,1022.49
2018-09-27T08:11:09.792Z,1022.45
2018-09-27T08:12:20.128Z,1022.53
2018-09-27T08:13:29.870Z,1022.46
2018-09-27T08:14:39.887Z,1022.44
2018-09-27T08:15:49.897Z,1022.44
2018-09-27T08:16:59.655Z,1022.41
2018-09-27T08:18:09.913Z,1022.46
2018-09-27T08:19:19.672Z,1022.37
2018-09-27T08:20:29.502Z,1022.38
2018-09-27T08:21:40.422Z,1022.32
2018-09-27T08:22:50.382Z,1022.43
2018-09-27T08:24:00.414Z,1022.41
2018-09-27T08:25:10.738Z,1022.47
2018-09-27T08:26:20.446Z,1022.45
2018-09-27T08:27:30.126Z,1022.43
2018-09-27T08:28:40.107Z,1022.4
2018-09-27T08:29:49.813Z,1022.36
2018-09-27T08:30:59.652Z,1022.33
2018-09-27T08:32:10.115Z,1022.36
2018-09-27T08:33:20.125Z,1022.36
2018-09-27T08:34:30.119Z,1022.29
2018-09-27T08:35:40.140Z,1022.3
2018-09-27T08:36:50.112Z,1022.22
2018-09-27T08:38:00.090Z,1022.31
2018-09-27T08:39:10.121Z,1022.23
2018-09-27T08:40:19.858Z,1022.27
2018-09-27T08:41:29.588Z,1022.33
2018-09-27T08:42:39.548Z,1022.24
2018-09-27T08:43:49.226Z,1022.28
2018-09-27T08:44:59.411Z,1022.18
2018-09-27T08:46:10.761Z,1022.15
2018-09-27T08:47:20.765Z,1022.2
2018-09-27T08:48:30.729Z,1022.25
2018-09-27T08:49:39.916Z,1022.19
2018-09-27T08:50:49.639Z,1022.33
2018-09-27T08:51:59.358Z,1022.28
2018-09-27T08:53:09.099Z,1022.29
2018-09-27T08:54:18.549Z,1022.27
2018-09-27T08:55:27.806Z,1022.27
2018-09-27T08:56:37.977Z,1022.31
2018-09-27T08:57:47.697Z,1022.27
2018-09-27T08:58:57.413Z,1022.19
2018-09-27T09:00:07.119Z,1022.31
2018-09-27T09:01:16.314Z,1022.24
2018-09-27T09:02:26.672Z,1022.21
2018-09-27T09:03:36.704Z,1022.18
2018-09-27T09:04:47.492Z,1022.19
2018-09-27T09:05:57.256Z,1022.25
2018-09-27T09:07:06.959Z,1022.16
2018-09-27T09:08:16.957Z,1022.17
2018-09-27T09:09:26.739Z,1022.19
2018-09-27T09:10:37.021Z,1022.18
2018-09-27T09:11:47.042Z,1022.16
2018-09-27T09:12:56.801Z,1022.11
2018-09-27T09:14:06.789Z,1022.16
2018-09-27T09:15:16.760Z,1022.19
2018-09-27T09:16:26.759Z,1022.13
2018-09-27T09:17:36.465Z,1022.16
2018-09-27T09:18:46.453Z,1022.06
2018-09-27T09:19:56.183Z,1022.06
2018-09-27T09:21:06.172Z,1022.04
2018-09-27T09:22:15.891Z,1021.99
2018-09-27T09:23:25.602Z,1021.98
2018-09-27T09:24:35.339Z,1021.97
2018-09-27T09:25:45.611Z,1022.06
2018-09-27T09:26:55.483Z,1022
2018-09-27T09:28:05.461Z,1021.97
2018-09-27T09:29:15.488Z,1022.06
2018-09-27T09:30:25.853Z,1022
2018-09-27T09:31:35.820Z,1022
2018-09-27T09:32:45.777Z,1022.08
2018-09-27T09:33:55.745Z,1022.06
2018-09-27T09:35:05.727Z,1021.99
2018-09-27T09:36:15.692Z,1022.02
2018-09-27T09:37:25.678Z,1022.03
2018-09-27T09:38:35.641Z,1022.08
2018-09-27T09:39:45.618Z,1022
2018-09-27T09:40:55.591Z,1022.04
2018-09-27T09:42:05.576Z,1022.09
2018-09-27T09:43:15.294Z,1022.04
2018-09-27T09:44:25.056Z,1022.02
2018-09-27T09:45:35.015Z,1021.99
2018-09-27T09:46:44.740Z,1022
2018-09-27T09:47:54.435Z,1021.92
2018-09-27T09:49:04.422Z,1022.04
2018-09-27T09:50:14.385Z,1021.97
2018-09-27T09:51:24.394Z,1021.96
2018-09-27T09:52:34.351Z,1022.02
2018-09-27T09:53:44.343Z,1022.11
2018-09-27T09:54:53.786Z,1022
2018-09-27T09:56:03.746Z,1021.98
2018-09-27T09:57:13.452Z,1022.02
2018-09-27T09:58:23.419Z,1021.99
2018-09-27T09:59:33.113Z,1021.96
2018-09-27T10:00:43.103Z,1021.97
2018-09-27T10:01:53.083Z,1022.1
2018-09-27T10:03:03.051Z,1021.98
2018-09-27T10:04:12.504Z,1022.04
2018-09-27T10:05:22.489Z,1021.95
2018-09-27T10:06:32.465Z,1021.89
2018-09-27T10:07:42.180Z,1021.95
2018-09-27T10:08:52.206Z,1021.88
2018-09-27T10:10:01.893Z,1021.89
2018-09-27T10:11:11.620Z,1021.87
2018-09-27T10:12:21.393Z,1021.8
2018-09-27T10:13:31.431Z,1021.81
2018-09-27T10:14:41.159Z,1021.79
2018-09-27T10:15:51.132Z,1021.82
2018-09-27T10:17:01.091Z,1021.69
2018-09-27T10:18:11.063Z,1021.82
2018-09-27T10:19:21.031Z,1021.74
2018-09-27T10:20:30.731Z,1021.75
2018-09-27T10:21:40.524Z,1021.68
2018-09-27T10:22:51.132Z,1021.65
2018-09-27T10:24:00.840Z,1021.73
2018-09-27T10:25:10.832Z,1021.79
2018-09-27T10:26:20.820Z,1021.71
2018-09-27T10:27:30.532Z,1021.68
2018-09-27T10:28:40.969Z,1021.69
2018-09-27T10:29:50.673Z,1021.65
2018-09-27T10:31:00.681Z,1021.71
2018-09-27T10:32:10.633Z,1021.72
2018-09-27T10:33:20.332Z,1021.68
2018-09-27T10:34:30.113Z,1021.65
2018-09-27T10:35:39.740Z,1021.63
2018-09-27T10:36:49.221Z,1021.68
2018-09-27T10:37:58.922Z,1021.56
2018-09-27T10:39:08.887Z,1021.58
2018-09-27T10:40:18.600Z,1021.63
2018-09-27T10:41:28.583Z,1021.58
2018-09-27T10:42:38.273Z,1021.53
2018-09-27T10:43:47.982Z,1021.51
2018-09-27T10:44:57.753Z,1021.46
2018-09-27T10:46:07.429Z,1021.56
2018-09-27T10:47:17.405Z,1021.48
2018-09-27T10:48:27.117Z,1021.51
2018-09-27T10:49:37.081Z,1021.47
2018-09-27T10:50:46.803Z,1021.46
2018-09-27T10:51:56.773Z,1021.49
2018-09-27T10:53:06.475Z,1021.46
2018-09-27T10:54:16.446Z,1021.44
2018-09-27T10:55:26.420Z,1021.46
2018-09-27T10:56:36.119Z,1021.34
2018-09-27T10:57:46.081Z,1021.32
2018-09-27T10:58:56.069Z,1021.33
2018-09-27T11:00:06.040Z,1021.32
2018-09-27T11:01:16.024Z,1021.36
2018-09-27T11:02:25.738Z,1021.39
2018-09-27T11:03:35.710Z,1021.36
2018-09-27T11:04:45.667Z,1021.3
2018-09-27T11:05:55.638Z,1021.3
2018-09-27T11:07:05.609Z,1021.32
2018-09-27T11:08:15.586Z,1021.28
2018-09-27T11:09:25.575Z,1021.22
2018-09-27T11:10:35.306Z,1021.3
2018-09-27T11:11:45.038Z,1021.27
2018-09-27T11:12:54.583Z,1021.31
2018-09-27T11:14:04.302Z,1021.22
2018-09-27T11:15:14.274Z,1021.25
2018-09-27T11:16:24.058Z,1021.24
2018-09-27T11:17:34.332Z,1021.15
2018-09-27T11:18:44.308Z,1021.23
2018-09-27T11:19:54.287Z,1021.31
2018-09-27T11:21:04.017Z,1021.19
2018-09-27T11:22:13.995Z,1021.22
2018-09-27T11:23:23.742Z,1021.18
2018-09-27T11:24:33.775Z,1021.12
2018-09-27T11:25:43.939Z,1021.06
2018-09-27T11:26:53.631Z,1020.99
2018-09-27T11:28:03.358Z,1021.08
2018-09-27T11:29:13.324Z,1021.09
2018-09-27T11:30:23.302Z,1021.02
2018-09-27T11:31:33.314Z,1020.95
2018-09-27T11:32:43.275Z,1020.99
2018-09-27T11:33:53.266Z,1020.93
2018-09-27T11:35:03.239Z,1020.92
2018-09-27T11:36:13.263Z,1020.85
2018-09-27T11:37:23.317Z,1020.88
2018-09-27T11:38:33.039Z,1020.91
2018-09-27T11:39:42.922Z,1020.9
2018-09-27T11:40:52.891Z,1020.82
2018-09-27T11:42:02.198Z,1020.77
2018-09-27T11:43:12.192Z,1020.73
2018-09-27T11:44:22.151Z,1020.74
2018-09-27T11:45:32.143Z,1020.72
2018-09-27T11:46:42.129Z,1020.8
2018-09-27T11:47:52.118Z,1020.78
2018-09-27T11:49:02.029Z,1020.88
2018-09-27T11:50:13.035Z,1020.67
2018-09-27T11:51:22.920Z,1020.76
2018-09-27T11:52:32.917Z,1020.66
2018-09-27T11:53:42.890Z,1020.77
2018-09-27T11:54:52.912Z,1020.75
2018-09-27T11:56:03.086Z,1020.66
2018-09-27T11:57:13.554Z,1020.72
2018-09-27T11:58:23.520Z,1020.58
2018-09-27T11:59:33.496Z,1020.73
2018-09-27T12:00:43.530Z,1020.56
2018-09-27T12:01:53.578Z,1020.53
2018-09-27T12:03:03.554Z,1020.71
2018-09-27T12:04:13.274Z,1020.62
2018-09-27T12:05:23.240Z,1020.66
2018-09-27T12:06:33.501Z,1020.54
2018-09-27T12:07:43.782Z,1020.49
2018-09-27T12:08:53.423Z,1020.6
2018-09-27T12:10:03.119Z,1020.59
2018-09-27T12:11:12.850Z,1020.48
2018-09-27T12:12:22.829Z,1020.39
2018-09-27T12:13:32.824Z,1020.49
2018-09-27T12:14:42.671Z,1020.46
2018-09-27T12:15:52.608Z,1020.5
2018-09-27T12:17:02.318Z,1020.37
2018-09-27T12:18:11.785Z,1020.36
2018-09-27T12:19:21.825Z,1020.49
2018-09-27T12:20:31.372Z,1020.47
2018-09-27T12:21:41.093Z,1020.33
2018-09-27T12:22:51.096Z,1020.42
2018-09-27T12:24:01.260Z,1020.39
2018-09-27T12:25:11.244Z,1020.31
2018-09-27T12:26:21.238Z,1020.34
2018-09-27T12:27:31.404Z,1020.25
2018-09-27T12:28:41.439Z,1020.34
2018-09-27T12:29:51.768Z,1020.31
2018-09-27T12:31:01.510Z,1020.13
2018-09-27T12:32:12.023Z,1020.33
2018-09-27T12:33:22.003Z,1020.25
2018-09-27T12:34:31.976Z,1020.22
2018-09-27T12:35:41.688Z,1020.19
2018-09-27T12:36:51.412Z,1020.2
2018-09-27T12:38:01.122Z,1020.24
2018-09-27T12:39:10.881Z,1020.21
2018-09-27T12:40:20.849Z,1020.18
2018-09-27T12:41:31.081Z,1020.12
2018-09-27T12:42:41.679Z,1020.18
2018-09-27T12:43:52.087Z,1020.1
2018-09-27T12:45:01.826Z,1020.09
2018-09-27T12:46:12.561Z,1020.03
2018-09-27T12:47:23.009Z,1020.12
2018-09-27T12:48:32.890Z,1020.15
2018-09-27T12:49:43.805Z,1020.02
2018-09-27T12:50:53.822Z,1020.02
2018-09-27T12:52:04.550Z,1020.01
2018-09-27T12:53:15.769Z,1020.03
2018-09-27T12:54:25.686Z,1020
2018-09-27T12:55:35.384Z,1019.99
2018-09-27T12:56:45.112Z,1020.06
2018-09-27T12:57:55.089Z,1020.02
2018-09-27T12:59:05.038Z,1019.89
2018-09-27T13:00:15.012Z,1019.94
2018-09-27T13:01:25.041Z,1019.88
2018-09-27T13:02:35.114Z,1019.92
2018-09-27T13:03:45.588Z,1019.9
2018-09-27T13:04:55.412Z,1019.82
2018-09-27T13:06:05.420Z,1019.82
2018-09-27T13:07:15.435Z,1019.96
2018-09-27T13:08:25.433Z,1019.8
2018-09-27T13:09:35.427Z,1019.79
2018-09-27T13:10:46.588Z,1019.71
2018-09-27T13:11:56.371Z,1019.67
2018-09-27T13:13:07.162Z,1019.64
2018-09-27T13:14:17.461Z,1019.64
2018-09-27T13:15:27.521Z,1019.6
2018-09-27T13:16:37.491Z,1019.61
2018-09-27T13:17:46.753Z,1019.61
2018-09-27T13:18:57.942Z,1019.55
2018-09-27T13:20:07.825Z,1019.56
2018-09-27T13:21:17.504Z,1019.54
2018-09-27T13:22:27.529Z,1019.64
2018-09-27T13:23:37.542Z,1019.48
2018-09-27T13:24:47.540Z,1019.53
2018-09-27T13:25:57.745Z,1019.42
2018-09-27T13:27:07.547Z,1019.46
2018-09-27T13:28:17.504Z,1019.35
2018-09-27T13:29:27.280Z,1019.39
2018-09-27T13:30:36.994Z,1019.38
2018-09-27T13:31:46.711Z,1019.28
2018-09-27T13:32:56.665Z,1019.28
2018-09-27T13:34:07.070Z,1019.19
2018-09-27T13:35:17.105Z,1019.12
2018-09-27T13:36:27.082Z,1019.23
2018-09-27T13:37:36.791Z,1019.13
2018-09-27T13:38:46.760Z,1019.14
2018-09-27T13:39:56.473Z,1019.1
2018-09-27T13:41:06.630Z,1019.07
2018-09-27T13:42:16.616Z,1019.1
2018-09-27T13:43:26.332Z,1019.11
2018-09-27T13:44:36.025Z,1019.02
2018-09-27T13:45:45.736Z,1019.11
2018-09-27T13:46:55.724Z,1019.01
2018-09-27T13:48:05.689Z,1018.95
2018-09-27T13:49:15.393Z,1018.96
2018-09-27T13:50:25.360Z,1019.01
2018-09-27T13:51:35.346Z,1019
2018-09-27T13:52:45.336Z,1018.98
2018-09-27T13:53:55.294Z,1018.94
2018-09-27T13:55:05.046Z,1018.86
2018-09-27T13:56:15.167Z,1018.79
2018-09-27T13:57:24.895Z,1018.85
2018-09-27T13:58:35.084Z,1018.81
2018-09-27T13:59:45.049Z,1018.82
2018-09-27T14:00:55.071Z,1018.82
2018-09-27T14:02:05.381Z,1018.87
2018-09-27T14:03:15.091Z,1018.77
2018-09-27T14:04:25.063Z,1018.75
2018-09-27T14:05:34.839Z,1018.77
2018-09-27T14:06:45.113Z,1018.65
2018-09-27T14:07:55.038Z,1018.66
2018-09-27T14:09:04.749Z,1018.6